LFSB METAR :   2017/11/21 21:00 LFSB 212100Z 17003KT 140V210 CAVOK 04/03 Q1017 NOSIG

TAF  2017/11/21 18:21 TAF LFSB 211700Z 2118/2218 20003KT CAVOK PROB40 TEMPO 2118/2206 6000 NSC PROB30 TEMPO 2200/2206 3000 MIFG